Terminal Aerodrome Forecast
Issued by NWS Atlanta, GA

Home | Current Version | Previous Version | Text Only | Print | Product List | Glossary On
Versions: 1 2 3 4 5 6 7 8 9 10 11 12 13 14 15 16 17 18 19 20 21 22 23
000
FTUS42 KFFC 061738
TAFMCN
TAF
KMCN 061738Z 0618/0718 27013G20KT P6SM SCT012 BKN020
     FM062200 29008KT P6SM SCT040
     FM070300 30006KT 4SM BR OVC015
     FM070900 29004KT 4SM BR OVC006
     FM071500 30004KT P6SM SCT035=

USA.gov is the U.S. government's official web portal to all federal, state and local government web resources and services.